createdAt,value
2018-12-19T00:01:42.129Z,6.14
2018-12-19T00:03:50.579Z,6.16
2018-12-19T00:05:59.365Z,6.17
2018-12-19T00:08:05.954Z,6.18
2018-12-19T00:10:12.230Z,6.20
2018-12-19T00:12:18.498Z,6.22
2018-12-19T00:14:25.450Z,6.19
2018-12-19T00:16:31.636Z,6.18
2018-12-19T00:18:38.811Z,6.15
2018-12-19T00:20:45.060Z,6.17
2018-12-19T00:22:51.288Z,6.20
2018-12-19T00:24:59.539Z,6.21
2018-12-19T00:27:08.027Z,6.24
2018-12-19T00:29:16.445Z,6.26
2018-12-19T00:31:24.706Z,6.28
2018-12-19T00:33:33.468Z,6.28
2018-12-19T00:35:42.527Z,6.25
2018-12-19T00:37:48.834Z,6.19
2018-12-19T00:39:54.942Z,6.18
2018-12-19T00:42:01.071Z,6.19
2018-12-19T00:44:07.382Z,6.17
2018-12-19T00:46:14.376Z,6.17
2018-12-19T00:48:20.985Z,6.13
2018-12-19T00:50:27.190Z,6.14
2018-12-19T00:52:33.328Z,6.12
2018-12-19T00:54:40.573Z,6.13
2018-12-19T00:56:47.093Z,6.10
2018-12-19T00:58:53.177Z,6.10
2018-12-19T01:00:59.893Z,6.10
2018-12-19T01:03:05.980Z,6.12
2018-12-19T01:05:12.454Z,6.17
2018-12-19T01:07:19.317Z,6.17
2018-12-19T01:09:26.251Z,6.14
2018-12-19T01:11:32.319Z,6.14
2018-12-19T01:13:38.447Z,6.17
2018-12-19T01:15:44.773Z,6.21
2018-12-19T01:17:51.070Z,6.22
2018-12-19T01:19:58.195Z,6.23
2018-12-19T01:22:04.654Z,6.25
2018-12-19T01:24:10.914Z,6.27
2018-12-19T01:26:17.039Z,6.30
2018-12-19T01:28:23.158Z,6.31
2018-12-19T01:30:29.690Z,6.33
2018-12-19T01:32:36.744Z,6.38
2018-12-19T01:34:42.943Z,6.42
2018-12-19T01:36:49.247Z,6.43
2018-12-19T01:38:55.389Z,6.43
2018-12-19T01:41:02.173Z,6.44
2018-12-19T01:43:08.717Z,6.44
2018-12-19T01:45:16.776Z,6.45
2018-12-19T01:47:22.849Z,6.45
2018-12-19T01:49:29.013Z,6.48
2018-12-19T01:51:36.181Z,6.47
2018-12-19T01:53:42.850Z,6.49
2018-12-19T01:55:51.484Z,6.50
2018-12-19T01:57:57.626Z,6.51
2018-12-19T02:00:03.943Z,6.53
2018-12-19T02:02:11.350Z,6.54
2018-12-19T02:04:17.559Z,6.52
2018-12-19T02:06:23.881Z,6.45
2018-12-19T02:08:36.496Z,6.41
2018-12-19T02:10:45.403Z,6.36
2018-12-19T02:12:51.686Z,6.35
2018-12-19T02:14:57.901Z,6.31
2018-12-19T02:17:04.177Z,6.28
2018-12-19T02:19:10.731Z,6.28
2018-12-19T02:21:16.904Z,6.26
2018-12-19T02:23:23.753Z,6.24
2018-12-19T02:25:30.445Z,6.21
2018-12-19T02:27:37.434Z,6.18
2018-12-19T02:29:44.645Z,6.15
2018-12-19T02:31:50.865Z,6.19
2018-12-19T02:33:57.575Z,6.22
2018-12-19T02:36:03.757Z,6.24
2018-12-19T02:38:09.889Z,6.24
2018-12-19T02:40:15.958Z,6.23
2018-12-19T02:42:22.098Z,6.25
2018-12-19T02:44:28.838Z,6.29
2018-12-19T02:46:35.240Z,6.31
2018-12-19T02:48:41.765Z,6.31
2018-12-19T02:50:47.949Z,6.30
2018-12-19T02:52:54.074Z,6.30
2018-12-19T02:57:23.626Z,6.28
2018-12-19T02:59:29.790Z,6.25
2018-12-19T03:01:37.414Z,6.26
2018-12-19T03:03:44.516Z,6.26
2018-12-19T03:05:51.076Z,6.24
2018-12-19T03:07:57.886Z,6.24
2018-12-19T03:10:04.389Z,6.23
2018-12-19T03:12:10.548Z,6.21
2018-12-19T03:14:17.365Z,6.19
2018-12-19T03:16:23.902Z,6.21
2018-12-19T03:18:30.775Z,6.26
2018-12-19T03:20:37.004Z,6.31
2018-12-19T03:22:43.359Z,6.34
2018-12-19T03:24:49.598Z,6.33
2018-12-19T03:26:55.674Z,6.29
2018-12-19T03:29:02.637Z,6.23
2018-12-19T03:31:08.766Z,6.18
2018-12-19T03:33:17.380Z,6.19
2018-12-19T03:35:23.907Z,6.16
2018-12-19T03:37:30.266Z,6.14
2018-12-19T03:39:36.548Z,6.14
2018-12-19T03:41:42.773Z,6.15
2018-12-19T03:43:49.484Z,6.15
2018-12-19T03:45:56.261Z,6.12
2018-12-19T03:48:02.586Z,6.08
2018-12-19T03:50:10.688Z,6.06
2018-12-19T03:52:16.954Z,6.05
2018-12-19T03:54:23.432Z,6.04
2018-12-19T03:56:30.360Z,6.01
2018-12-19T03:58:36.435Z,6.02
2018-12-19T04:00:42.649Z,5.99
2018-12-19T04:02:48.724Z,5.97
2018-12-19T04:04:54.852Z,5.97
2018-12-19T04:07:00.970Z,6.00
2018-12-19T04:09:08.312Z,6.03
2018-12-19T04:11:14.628Z,6.08
2018-12-19T04:13:21.416Z,6.13
2018-12-19T04:15:28.009Z,6.20
2018-12-19T04:17:34.908Z,6.18
2018-12-19T04:19:41.760Z,6.14
2018-12-19T04:21:50.013Z,6.09
2018-12-19T04:23:56.247Z,6.05
2018-12-19T04:26:02.379Z,6.00
2018-12-19T04:28:08.577Z,5.98
2018-12-19T04:30:14.623Z,6.00
2018-12-19T04:32:20.931Z,6.00
2018-12-19T04:34:27.376Z,6.01
2018-12-19T04:36:33.417Z,6.03
2018-12-19T04:38:40.519Z,6.03
2018-12-19T04:40:46.605Z,6.02
2018-12-19T04:42:52.668Z,6.00
2018-12-19T04:44:59.632Z,6.03
2018-12-19T04:47:06.436Z,6.08
2018-12-19T04:49:13.364Z,6.11
2018-12-19T04:51:19.663Z,6.10
2018-12-19T04:53:25.828Z,6.09
2018-12-19T04:55:31.933Z,6.08
2018-12-19T04:57:38.105Z,6.11
2018-12-19T04:59:44.219Z,6.13
2018-12-19T05:01:50.297Z,6.16
2018-12-19T05:03:56.550Z,6.17
2018-12-19T05:06:05.507Z,6.20
2018-12-19T05:08:11.716Z,6.23
2018-12-19T05:10:17.945Z,6.23
2018-12-19T05:12:23.994Z,6.25
2018-12-19T05:14:31.294Z,6.23
2018-12-19T05:16:37.802Z,6.26
2018-12-19T05:18:44.089Z,6.28
2018-12-19T05:20:53.006Z,6.32
2018-12-19T05:22:59.134Z,6.35
2018-12-19T05:25:06.126Z,6.34
2018-12-19T05:27:12.300Z,6.34
2018-12-19T05:29:18.463Z,6.31
2018-12-19T05:31:24.728Z,6.30
2018-12-19T05:35:49.131Z,6.33
2018-12-19T05:37:55.469Z,6.35
2018-12-19T05:40:01.809Z,6.36
2018-12-19T05:42:07.978Z,6.39
2018-12-19T05:44:14.880Z,6.44
2018-12-19T05:46:22.790Z,6.46
2018-12-19T05:48:28.899Z,6.47
2018-12-19T05:50:35.740Z,6.50
2018-12-19T05:52:41.936Z,6.50
2018-12-19T05:54:48.441Z,6.51
2018-12-19T05:56:54.562Z,6.52
2018-12-19T05:59:00.838Z,6.55
2018-12-19T06:01:11.684Z,6.56
2018-12-19T06:03:21.630Z,6.59
2018-12-19T06:05:28.067Z,6.59
2018-12-19T06:07:34.122Z,6.59
2018-12-19T06:09:40.549Z,6.62
2018-12-19T06:11:46.642Z,6.63
2018-12-19T06:13:55.306Z,6.68
2018-12-19T06:16:02.081Z,6.68
2018-12-19T06:18:08.184Z,6.70
2018-12-19T06:20:15.005Z,6.71
2018-12-19T06:22:21.476Z,6.71
2018-12-19T06:24:27.907Z,6.72
2018-12-19T06:26:35.859Z,6.74
2018-12-19T06:28:41.932Z,6.76
2018-12-19T06:30:48.664Z,6.75
2018-12-19T06:32:55.536Z,6.72
2018-12-19T06:35:01.722Z,6.69
2018-12-19T06:37:09.134Z,6.69
2018-12-19T06:39:16.222Z,6.72
2018-12-19T06:41:23.724Z,6.77
2018-12-19T06:43:29.807Z,6.79
2018-12-19T06:45:36.929Z,6.85
2018-12-19T06:47:43.206Z,6.87
2018-12-19T06:49:49.433Z,6.91
2018-12-19T06:51:55.564Z,6.89
2018-12-19T06:54:01.765Z,6.89
2018-12-19T06:56:08.030Z,6.87
2018-12-19T06:58:14.090Z,6.83
2018-12-19T07:00:20.585Z,6.80
2018-12-19T07:02:27.592Z,6.75
2018-12-19T07:04:33.746Z,6.74
2018-12-19T07:06:39.872Z,6.73
2018-12-19T07:08:46.075Z,6.73
2018-12-19T07:10:52.371Z,6.75
2018-12-19T07:13:01.415Z,6.76
2018-12-19T07:15:08.134Z,6.74
2018-12-19T07:17:14.316Z,6.74
2018-12-19T07:19:20.634Z,6.73
2018-12-19T07:21:28.314Z,6.71
2018-12-19T07:23:34.563Z,6.69
2018-12-19T07:25:41.145Z,6.68
2018-12-19T07:27:48.110Z,6.70
2018-12-19T07:29:54.228Z,6.70
2018-12-19T07:32:00.537Z,6.69
2018-12-19T07:34:07.082Z,6.67
2018-12-19T07:36:13.373Z,6.63
2018-12-19T07:38:19.617Z,6.64
2018-12-19T07:40:26.102Z,6.66
2018-12-19T07:42:34.391Z,6.68
2018-12-19T07:44:41.648Z,6.71
2018-12-19T07:46:47.732Z,6.75
2018-12-19T07:48:54.000Z,6.81
2018-12-19T07:51:00.274Z,6.86
2018-12-19T07:53:06.614Z,6.89
2018-12-19T07:55:13.253Z,6.93
2018-12-19T07:57:19.549Z,6.95
2018-12-19T07:59:25.967Z,6.98
2018-12-19T08:01:32.154Z,7.02
2018-12-19T08:03:38.244Z,7.05
2018-12-19T08:05:44.561Z,7.06
2018-12-19T08:07:50.648Z,7.08
2018-12-19T08:09:57.681Z,7.12
2018-12-19T08:12:03.856Z,7.14
2018-12-19T08:14:10.768Z,7.17
2018-12-19T08:16:17.298Z,7.17
2018-12-19T08:18:24.173Z,7.17
2018-12-19T08:20:32.089Z,7.17
2018-12-19T08:22:38.853Z,7.19
2018-12-19T08:24:45.041Z,7.19
2018-12-19T08:26:53.396Z,7.21
2018-12-19T08:29:01.964Z,7.21
2018-12-19T08:31:09.713Z,7.22
2018-12-19T08:33:16.173Z,7.24
2018-12-19T08:35:22.501Z,7.27
2018-12-19T08:37:29.030Z,7.33
2018-12-19T08:39:35.562Z,7.38
2018-12-19T08:41:43.544Z,7.39
2018-12-19T08:43:49.857Z,7.42
2018-12-19T08:45:58.209Z,7.47
2018-12-19T08:48:04.977Z,7.48
2018-12-19T08:50:13.116Z,7.34
2018-12-19T08:52:19.530Z,7.48
2018-12-19T08:54:26.782Z,7.48
2018-12-19T08:56:33.033Z,7.51
2018-12-19T08:58:39.546Z,7.53
2018-12-19T09:00:45.970Z,7.57
2018-12-19T09:02:52.111Z,7.57
2018-12-19T09:04:58.299Z,7.59
2018-12-19T09:07:04.513Z,7.62
2018-12-19T09:09:10.856Z,7.64
2018-12-19T09:11:17.187Z,7.65
2018-12-19T09:13:26.633Z,7.67
2018-12-19T09:15:38.613Z,7.68
2018-12-19T09:17:45.829Z,7.73
2018-12-19T09:19:52.411Z,7.77
2018-12-19T09:21:58.859Z,7.79
2018-12-19T09:24:07.151Z,7.76
2018-12-19T09:26:13.417Z,7.76
2018-12-19T09:28:19.761Z,7.77
2018-12-19T09:30:26.040Z,7.80
2018-12-19T09:32:32.217Z,7.85
2018-12-19T09:34:38.487Z,7.89
2018-12-19T09:36:45.935Z,7.91
2018-12-19T09:38:52.082Z,7.93
2018-12-19T09:40:58.194Z,7.93
2018-12-19T09:43:04.565Z,7.90
2018-12-19T09:45:13.569Z,7.90
2018-12-19T09:47:19.897Z,7.91
2018-12-19T09:49:26.046Z,7.94
2018-12-19T09:51:33.531Z,7.95
2018-12-19T09:53:41.594Z,7.97
2018-12-19T09:55:47.929Z,7.96
2018-12-19T09:57:54.193Z,7.98
2018-12-19T10:00:00.515Z,7.98
2018-12-19T10:02:08.901Z,7.99
2018-12-19T10:04:15.894Z,7.99
2018-12-19T10:06:22.080Z,8.02
2018-12-19T10:08:35.283Z,8.03
2018-12-19T10:13:09.445Z,8.07
2018-12-19T10:15:16.273Z,8.12
2018-12-19T10:17:30.236Z,8.13
2018-12-19T10:19:36.560Z,8.16
2018-12-19T10:21:43.478Z,8.19
2018-12-19T10:23:53.010Z,8.22
2018-12-19T10:26:04.135Z,8.27
2018-12-19T10:28:14.961Z,8.29
2018-12-19T10:30:28.662Z,8.34
2018-12-19T10:32:40.578Z,8.37
2018-12-19T10:34:46.730Z,8.41
2018-12-19T10:36:53.080Z,8.45
2018-12-19T10:39:00.327Z,8.46
2018-12-19T10:41:06.583Z,8.48
2018-12-19T10:43:13.753Z,8.52
2018-12-19T10:45:21.698Z,8.54
2018-12-19T10:47:29.381Z,8.56
2018-12-19T10:49:35.715Z,8.59
2018-12-19T10:51:42.978Z,8.61
2018-12-19T10:53:49.236Z,8.61
2018-12-19T10:55:55.773Z,8.60
2018-12-19T10:58:02.573Z,8.61
2018-12-19T11:00:18.064Z,8.61
2018-12-19T11:02:24.274Z,8.65
2018-12-19T11:04:30.470Z,8.69
2018-12-19T11:06:37.361Z,8.74
2018-12-19T11:08:45.379Z,8.78
2018-12-19T11:10:51.585Z,8.81
2018-12-19T11:12:58.839Z,8.81
2018-12-19T11:17:28.890Z,8.80
2018-12-19T11:19:37.770Z,8.78
2018-12-19T11:21:44.059Z,8.75
2018-12-19T11:23:51.139Z,8.74
2018-12-19T11:25:57.226Z,8.73
2018-12-19T11:28:03.404Z,8.76
2018-12-19T11:30:10.627Z,8.80
2018-12-19T11:32:17.535Z,8.84
2018-12-19T11:34:26.975Z,8.88
2018-12-19T11:36:34.064Z,8.90
2018-12-19T11:38:41.972Z,8.90
2018-12-19T11:40:48.441Z,8.92
2018-12-19T11:42:54.695Z,8.94
2018-12-19T11:45:02.251Z,8.97
2018-12-19T11:47:08.350Z,8.99
2018-12-19T11:49:15.457Z,9.03
2018-12-19T11:51:21.665Z,9.03
2018-12-19T11:53:27.958Z,9.05
2018-12-19T11:55:34.652Z,9.09
2018-12-19T11:57:41.899Z,9.15
2018-12-19T11:59:49.050Z,9.22
2018-12-19T12:01:55.189Z,9.27
2018-12-19T12:04:03.258Z,9.31
2018-12-19T12:06:12.128Z,9.39
2018-12-19T12:08:21.593Z,9.43
2018-12-19T12:10:27.842Z,9.46
2018-12-19T12:12:36.256Z,9.50
2018-12-19T12:14:42.356Z,9.53
2018-12-19T12:16:48.509Z,9.56
2018-12-19T12:18:55.546Z,9.59
2018-12-19T12:21:02.841Z,9.61
2018-12-19T12:23:12.132Z,9.61
2018-12-19T12:25:18.489Z,9.62
2018-12-19T12:27:24.592Z,9.63
2018-12-19T12:29:31.030Z,9.64
2018-12-19T12:31:37.238Z,9.64
2018-12-19T12:33:43.387Z,9.64
2018-12-19T12:35:50.770Z,9.63
2018-12-19T12:37:57.623Z,9.61
2018-12-19T12:40:05.457Z,9.61
2018-12-19T12:42:13.103Z,9.62
2018-12-19T12:44:19.922Z,9.65
2018-12-19T12:46:26.112Z,9.67
2018-12-19T12:48:32.248Z,9.66
2018-12-19T12:50:38.379Z,9.67
2018-12-19T12:52:44.559Z,9.70
2018-12-19T12:54:50.704Z,9.71
2018-12-19T12:56:56.935Z,9.73
2018-12-19T12:59:03.233Z,9.75
2018-12-19T13:01:09.681Z,9.76
2018-12-19T13:03:15.951Z,9.77
2018-12-19T13:05:24.393Z,9.77
2018-12-19T13:07:30.692Z,9.78
2018-12-19T13:09:36.808Z,9.80
2018-12-19T13:11:43.109Z,9.82
2018-12-19T13:13:49.367Z,9.85
2018-12-19T13:15:55.763Z,9.85
2018-12-19T13:18:02.619Z,9.85
2018-12-19T13:20:08.736Z,9.87
2018-12-19T13:22:14.947Z,9.89
2018-12-19T13:24:21.093Z,9.88
2018-12-19T13:26:27.215Z,9.87
2018-12-19T13:28:33.591Z,9.86
2018-12-19T13:30:39.763Z,9.85
2018-12-19T13:32:47.389Z,9.82
2018-12-19T13:34:54.611Z,9.79
2018-12-19T13:37:01.311Z,9.78
2018-12-19T13:39:08.703Z,9.77
2018-12-19T13:41:14.907Z,9.77
2018-12-19T13:43:21.045Z,9.77
2018-12-19T13:45:27.963Z,9.77
2018-12-19T13:47:34.259Z,9.76
2018-12-19T13:49:40.411Z,9.74
2018-12-19T13:51:46.574Z,9.72
2018-12-19T13:53:53.178Z,9.69
2018-12-19T13:55:59.356Z,9.69
2018-12-19T13:58:07.178Z,9.68
2018-12-19T14:00:15.055Z,9.68
2018-12-19T14:02:21.231Z,9.68
2018-12-19T14:04:27.753Z,9.68
2018-12-19T14:06:34.029Z,9.66
2018-12-19T14:08:40.967Z,9.63
2018-12-19T14:10:48.461Z,9.62
2018-12-19T14:12:54.598Z,9.63
2018-12-19T14:15:00.955Z,9.62
2018-12-19T14:17:07.245Z,9.58
2018-12-19T14:19:13.666Z,9.58
2018-12-19T14:21:19.947Z,9.54
2018-12-19T14:23:26.277Z,9.52
2018-12-19T14:25:32.474Z,9.50
2018-12-19T14:27:38.633Z,9.53
2018-12-19T14:29:44.807Z,9.53
2018-12-19T14:31:51.434Z,9.55
2018-12-19T14:33:58.204Z,9.56
2018-12-19T14:36:05.103Z,9.57
2018-12-19T14:38:11.281Z,9.61
2018-12-19T14:40:17.463Z,9.61
2018-12-19T14:42:23.598Z,9.64
2018-12-19T14:46:48.895Z,9.64
2018-12-19T14:48:55.420Z,9.65
2018-12-19T14:51:02.842Z,9.64
2018-12-19T14:53:09.306Z,9.63
2018-12-19T14:55:15.616Z,9.62
2018-12-19T14:57:21.990Z,9.59
2018-12-19T14:59:28.148Z,9.59
2018-12-19T15:01:34.435Z,9.59
2018-12-19T15:03:40.575Z,9.60
2018-12-19T15:05:46.718Z,9.61
2018-12-19T15:07:53.667Z,9.61
2018-12-19T15:10:00.047Z,9.61
2018-12-19T15:12:06.335Z,9.61
2018-12-19T15:14:13.284Z,9.59
2018-12-19T15:16:23.782Z,9.59
2018-12-19T15:18:30.031Z,9.58
2018-12-19T15:20:36.372Z,9.57
2018-12-19T15:22:42.609Z,9.52
2018-12-19T15:24:48.814Z,9.53
2018-12-19T15:26:54.948Z,9.53
2018-12-19T15:29:01.705Z,9.52
2018-12-19T15:31:07.990Z,9.51
2018-12-19T15:33:14.241Z,9.52
2018-12-19T15:35:20.367Z,9.55
2018-12-19T15:37:26.515Z,9.58
2018-12-19T15:39:32.772Z,9.59
2018-12-19T15:41:39.017Z,9.61
2018-12-19T15:43:45.131Z,9.63
2018-12-19T15:45:51.852Z,9.64
2018-12-19T15:47:59.074Z,9.64
2018-12-19T15:50:07.187Z,9.65
2018-12-19T15:52:13.540Z,9.64
2018-12-19T15:54:20.281Z,9.64
2018-12-19T15:56:26.497Z,9.61
2018-12-19T15:58:33.260Z,9.59
2018-12-19T16:00:39.578Z,9.60
2018-12-19T16:02:46.821Z,9.60
2018-12-19T16:04:53.142Z,9.61
2018-12-19T16:06:59.812Z,9.62
2018-12-19T16:09:08.382Z,9.64
2018-12-19T16:11:14.715Z,9.63
2018-12-19T16:13:21.244Z,9.66
2018-12-19T16:15:27.588Z,9.65
2018-12-19T16:17:34.088Z,9.66
2018-12-19T16:19:40.438Z,9.66
2018-12-19T16:21:47.235Z,9.67
2018-12-19T16:23:53.653Z,9.65
2018-12-19T16:25:59.929Z,9.64
2018-12-19T16:28:06.338Z,9.65
2018-12-19T16:30:13.375Z,9.66
2018-12-19T16:32:20.090Z,9.67
2018-12-19T16:34:26.305Z,9.67
2018-12-19T16:36:32.640Z,9.67
2018-12-19T16:38:38.930Z,9.69
2018-12-19T16:40:45.379Z,9.70
2018-12-19T16:42:51.679Z,9.71
2018-12-19T16:44:58.767Z,9.72
2018-12-19T16:47:05.223Z,9.73
2018-12-19T16:49:11.599Z,9.74
2018-12-19T16:51:17.845Z,9.75
2018-12-19T16:53:24.105Z,9.77
2018-12-19T16:55:30.274Z,9.77
2018-12-19T16:57:36.441Z,9.78
2018-12-19T16:59:43.432Z,9.77
2018-12-19T17:01:51.158Z,9.78
2018-12-19T17:03:57.883Z,9.77
2018-12-19T17:06:04.097Z,9.78
2018-12-19T17:08:10.509Z,9.78
2018-12-19T17:10:16.884Z,9.80
2018-12-19T17:12:23.092Z,9.79
2018-12-19T17:14:29.904Z,9.78
2018-12-19T17:16:36.102Z,9.78
2018-12-19T17:18:42.273Z,9.78
2018-12-19T17:20:49.890Z,9.77
2018-12-19T17:22:56.321Z,9.77
2018-12-19T17:25:02.588Z,9.72
2018-12-19T17:27:09.135Z,9.72
2018-12-19T17:29:15.193Z,9.70
2018-12-19T17:31:21.713Z,9.69
2018-12-19T17:33:28.080Z,9.67
2018-12-19T17:35:34.184Z,9.63
2018-12-19T17:37:40.396Z,9.63
2018-12-19T17:39:46.407Z,9.63
2018-12-19T17:41:52.706Z,9.64
2018-12-19T17:43:59.179Z,9.62
2018-12-19T17:46:06.009Z,9.59
2018-12-19T17:48:12.101Z,9.59
2018-12-19T17:50:19.461Z,9.55
2018-12-19T17:52:26.231Z,9.53
2018-12-19T17:54:32.395Z,9.48
2018-12-19T17:56:38.979Z,9.44
2018-12-19T17:58:45.125Z,9.41
2018-12-19T18:00:53.349Z,9.38
2018-12-19T18:02:59.607Z,9.37
2018-12-19T18:05:06.269Z,9.34
2018-12-19T18:07:12.547Z,9.36
2018-12-19T18:11:39.549Z,9.34
2018-12-19T18:13:46.027Z,9.35
2018-12-19T18:15:52.448Z,9.31
2018-12-19T18:17:58.574Z,9.30
2018-12-19T18:20:06.142Z,9.29
2018-12-19T18:22:12.195Z,9.29
2018-12-19T18:24:18.371Z,9.31
2018-12-19T18:26:24.500Z,9.28
2018-12-19T18:28:30.698Z,9.28
2018-12-19T18:30:37.933Z,9.29
2018-12-19T18:32:44.323Z,9.28
2018-12-19T18:34:51.114Z,9.27
2018-12-19T18:36:57.389Z,9.26
2018-12-19T18:39:05.614Z,9.25
2018-12-19T18:41:12.958Z,9.24
2018-12-19T18:43:19.149Z,9.27
2018-12-19T18:45:26.247Z,9.25
2018-12-19T18:47:34.601Z,9.23
2018-12-19T18:49:40.764Z,9.24
2018-12-19T18:51:47.121Z,9.24
2018-12-19T18:53:53.521Z,9.24
2018-12-19T18:55:59.901Z,9.26
2018-12-19T18:58:07.207Z,9.30
2018-12-19T19:02:38.373Z,9.34
2018-12-19T19:04:44.693Z,9.34
2018-12-19T19:06:51.089Z,9.36
2018-12-19T19:08:57.559Z,9.37
2018-12-19T19:11:03.818Z,9.39
2018-12-19T19:13:10.096Z,9.39
2018-12-19T19:15:16.344Z,9.41
2018-12-19T19:17:22.603Z,9.41
2018-12-19T19:21:46.586Z,9.38
2018-12-19T19:23:54.231Z,9.37
2018-12-19T19:26:00.538Z,9.35
2018-12-19T19:28:06.748Z,9.32
2018-12-19T19:30:13.203Z,9.29
2018-12-19T19:32:19.484Z,9.27
2018-12-19T19:34:26.494Z,9.25
2018-12-19T19:36:33.342Z,9.21
2018-12-19T19:38:39.646Z,9.17
2018-12-19T19:40:45.871Z,9.13
2018-12-19T19:45:09.688Z,9.14
2018-12-19T19:47:15.792Z,9.16
2018-12-19T19:49:22.152Z,9.18
2018-12-19T19:51:28.372Z,9.16
2018-12-19T19:53:34.567Z,9.15
2018-12-19T19:55:40.976Z,9.13
2018-12-19T19:57:47.105Z,9.12
2018-12-19T19:59:53.395Z,9.09
2018-12-19T20:01:59.798Z,9.10
2018-12-19T20:04:06.046Z,9.11
2018-12-19T20:06:12.391Z,9.11
2018-12-19T20:08:18.577Z,9.14
2018-12-19T20:10:24.847Z,9.16
2018-12-19T20:12:31.752Z,9.17
2018-12-19T20:14:37.911Z,9.20
2018-12-19T20:16:49.359Z,9.20
2018-12-19T20:18:55.568Z,9.18
2018-12-19T20:21:01.764Z,9.18
2018-12-19T20:23:08.056Z,9.19
2018-12-19T20:25:14.179Z,9.20
2018-12-19T20:27:21.404Z,9.22
2018-12-19T20:29:27.738Z,9.24
2018-12-19T20:31:33.903Z,9.27
2018-12-19T20:33:40.254Z,9.29
2018-12-19T20:35:46.419Z,9.33
2018-12-19T20:37:52.638Z,9.34
2018-12-19T20:39:58.923Z,9.34
2018-12-19T20:42:05.735Z,9.34
2018-12-19T20:44:12.090Z,9.36
2018-12-19T20:46:18.304Z,9.37
2018-12-19T20:48:24.472Z,9.37
2018-12-19T20:50:31.546Z,9.38
2018-12-19T20:52:38.002Z,9.38
2018-12-19T20:54:44.159Z,9.38
2018-12-19T20:56:54.655Z,9.35
2018-12-19T20:59:00.835Z,9.32
2018-12-19T21:01:07.113Z,9.28
2018-12-19T21:03:13.621Z,9.25
2018-12-19T21:05:19.723Z,9.24
2018-12-19T21:07:26.221Z,9.23
2018-12-19T21:09:32.497Z,9.22
2018-12-19T21:11:38.821Z,9.17
2018-12-19T21:13:46.863Z,9.12
2018-12-19T21:15:53.947Z,9.07
2018-12-19T21:18:05.747Z,9.05
2018-12-19T21:20:11.839Z,9.01
2018-12-19T21:22:18.127Z,8.97
2018-12-19T21:24:24.418Z,8.92
2018-12-19T21:26:30.563Z,8.91
2018-12-19T21:28:36.830Z,8.95
2018-12-19T21:30:42.957Z,8.98
2018-12-19T21:32:49.226Z,8.98
2018-12-19T21:34:55.538Z,9.01
2018-12-19T21:37:03.020Z,9.02
2018-12-19T21:39:11.796Z,9.01
2018-12-19T21:41:17.960Z,9.03
2018-12-19T21:43:24.737Z,9.04
2018-12-19T21:45:30.873Z,9.05
2018-12-19T21:47:37.096Z,9.04
2018-12-19T21:49:43.256Z,9.02
2018-12-19T21:51:49.526Z,9.01
2018-12-19T21:53:55.745Z,9.01
2018-12-19T21:56:02.793Z,9.02
2018-12-19T21:58:09.564Z,9.02
2018-12-19T22:00:19.346Z,9.04
2018-12-19T22:02:25.924Z,9.06
2018-12-19T22:04:32.286Z,9.06
2018-12-19T22:06:38.592Z,9.10
2018-12-19T22:08:45.720Z,9.10
2018-12-19T22:10:52.653Z,9.05
2018-12-19T22:12:58.887Z,8.99
2018-12-19T22:15:06.112Z,8.98
2018-12-19T22:17:17.367Z,8.99
2018-12-19T22:19:23.639Z,9.04
2018-12-19T22:23:59.795Z,9.13
2018-12-19T22:26:06.083Z,9.15
2018-12-19T22:28:13.190Z,9.17
2018-12-19T22:30:19.826Z,9.15
2018-12-19T22:32:26.171Z,9.13
2018-12-19T22:34:32.378Z,9.11
2018-12-19T22:36:38.574Z,9.08
2018-12-19T22:38:44.733Z,9.09
2018-12-19T22:40:51.003Z,9.06
2018-12-19T22:42:57.150Z,9.04
2018-12-19T22:45:04.322Z,9.03
2018-12-19T22:47:11.107Z,9.05
2018-12-19T22:49:17.554Z,9.07
2018-12-19T22:51:23.799Z,9.10
2018-12-19T22:53:30.712Z,9.14
2018-12-19T22:55:37.020Z,9.16
2018-12-19T22:57:43.188Z,9.17
2018-12-19T22:59:50.673Z,9.18
2018-12-19T23:02:02.105Z,9.17
2018-12-19T23:04:08.764Z,9.15
2018-12-19T23:06:16.997Z,9.13
2018-12-19T23:08:23.697Z,9.12
2018-12-19T23:10:30.039Z,9.15
2018-12-19T23:12:36.380Z,9.17
2018-12-19T23:14:43.057Z,9.18
2018-12-19T23:16:54.780Z,9.16
2018-12-19T23:19:06.663Z,9.14
2018-12-19T23:21:18.518Z,9.14
2018-12-19T23:23:30.802Z,9.13
2018-12-19T23:25:42.396Z,9.14
2018-12-19T23:27:50.633Z,9.13
2018-12-19T23:29:56.884Z,9.10
2018-12-19T23:34:28.372Z,9.01
2018-12-19T23:36:35.335Z,8.97
2018-12-19T23:38:41.990Z,8.95
2018-12-19T23:40:48.425Z,8.92
2018-12-19T23:42:54.652Z,8.93
2018-12-19T23:45:01.870Z,8.94
2018-12-19T23:47:08.231Z,8.96
2018-12-19T23:49:14.646Z,8.97
2018-12-19T23:51:20.891Z,8.99
2018-12-19T23:53:27.019Z,9.02
2018-12-19T23:55:38.713Z,9.04
2018-12-19T23:57:44.770Z,9.07
2018-12-19T23:59:51.654Z,9.11
